sensor_id;sensor_type;location;lat;lon;timestamp;P1;durP1;ratioP1;P2;durP2;ratioP2
60975;SDS011;46849;48.154;17.042;2022-09-03T00:01:24;2.20;;;0.63;;
60975;SDS011;46849;48.154;17.042;2022-09-03T00:04:16;1.30;;;0.60;;
60975;SDS011;46849;48.154;17.042;2022-09-03T00:07:04;1.20;;;0.90;;
60975;SDS011;46849;48.154;17.042;2022-09-03T00:09:59;1.65;;;0.70;;
60975;SDS011;46849;48.154;17.042;2022-09-03T00:12:45;3.17;;;0.95;;
60975;SDS011;46849;48.154;17.042;2022-09-03T00:15:31;2.78;;;0.70;;
60975;SDS011;46849;48.154;17.042;2022-09-03T00:18:17;1.92;;;0.93;;
60975;SDS011;46849;48.154;17.042;2022-09-03T00:21:05;2.08;;;1.00;;
60975;SDS011;46849;48.154;17.042;2022-09-03T00:23:52;1.80;;;0.50;;
60975;SDS011;46849;48.154;17.042;2022-09-03T00:26:37;6.95;;;1.40;;
60975;SDS011;46849;48.154;17.042;2022-09-03T00:29:24;1.48;;;0.77;;
60975;SDS011;46849;48.154;17.042;2022-09-03T00:32:16;1.35;;;0.88;;
60975;SDS011;46849;48.154;17.042;2022-09-03T00:35:03;2.10;;;1.20;;
60975;SDS011;46849;48.154;17.042;2022-09-03T00:37:50;4.25;;;1.10;;
60975;SDS011;46849;48.154;17.042;2022-09-03T00:40:44;2.28;;;0.82;;
60975;SDS011;46849;48.154;17.042;2022-09-03T00:46:38;2.38;;;1.17;;
60975;SDS011;46849;48.154;17.042;2022-09-03T01:01:09;3.83;;;1.20;;
60975;SDS011;46849;48.154;17.042;2022-09-03T01:04:07;2.50;;;1.50;;
60975;SDS011;46849;48.154;17.042;2022-09-03T01:09:56;1.50;;;0.90;;
60975;SDS011;46849;48.154;17.042;2022-09-03T01:12:51;1.75;;;1.00;;
60975;SDS011;46849;48.154;17.042;2022-09-03T01:15:51;2.42;;;1.20;;
60975;SDS011;46849;48.154;17.042;2022-09-03T01:35:45;2.45;;;0.95;;
60975;SDS011;46849;48.154;17.042;2022-09-03T01:38:34;3.00;;;1.30;;
60975;SDS011;46849;48.154;17.042;2022-09-03T01:53:24;1.65;;;1.10;;
60975;SDS011;46849;48.154;17.042;2022-09-03T01:56:28;5.10;;;1.05;;
60975;SDS011;46849;48.154;17.042;2022-09-03T02:02:28;2.75;;;1.40;;
60975;SDS011;46849;48.154;17.042;2022-09-03T02:05:17;1.92;;;0.98;;
60975;SDS011;46849;48.154;17.042;2022-09-03T02:08:03;4.00;;;1.40;;
60975;SDS011;46849;48.154;17.042;2022-09-03T02:10:49;3.40;;;1.02;;
60975;SDS011;46849;48.154;17.042;2022-09-03T02:13:37;2.28;;;1.20;;
60975;SDS011;46849;48.154;17.042;2022-09-03T02:16:22;2.95;;;1.20;;
60975;SDS011;46849;48.154;17.042;2022-09-03T02:19:10;2.60;;;1.30;;
60975;SDS011;46849;48.154;17.042;2022-09-03T02:21:55;2.67;;;1.13;;
60975;SDS011;46849;48.154;17.042;2022-09-03T02:24:40;3.33;;;1.17;;
60975;SDS011;46849;48.154;17.042;2022-09-03T02:27:24;3.75;;;1.23;;
60975;SDS011;46849;48.154;17.042;2022-09-03T02:30:10;2.42;;;1.35;;
60975;SDS011;46849;48.154;17.042;2022-09-03T02:32:55;2.83;;;1.15;;
60975;SDS011;46849;48.154;17.042;2022-09-03T02:35:40;4.28;;;1.17;;
60975;SDS011;46849;48.154;17.042;2022-09-03T02:38:25;5.88;;;1.10;;
60975;SDS011;46849;48.154;17.042;2022-09-03T02:41:10;3.65;;;1.10;;
60975;SDS011;46849;48.154;17.042;2022-09-03T02:46:44;2.63;;;1.00;;
60975;SDS011;46849;48.154;17.042;2022-09-03T02:49:30;2.63;;;1.50;;
60975;SDS011;46849;48.154;17.042;2022-09-03T02:52:15;2.97;;;1.20;;
60975;SDS011;46849;48.154;17.042;2022-09-03T02:55:00;2.38;;;1.30;;
60975;SDS011;46849;48.154;17.042;2022-09-03T02:57:45;2.33;;;1.20;;
60975;SDS011;46849;48.154;17.042;2022-09-03T03:00:30;5.63;;;1.30;;
60975;SDS011;46849;48.154;17.042;2022-09-03T03:03:14;6.30;;;1.65;;
60975;SDS011;46849;48.154;17.042;2022-09-03T03:06:00;3.03;;;1.02;;
60975;SDS011;46849;48.154;17.042;2022-09-03T03:08:46;2.08;;;1.02;;
60975;SDS011;46849;48.154;17.042;2022-09-03T03:11:30;2.08;;;1.10;;
60975;SDS011;46849;48.154;17.042;2022-09-03T03:14:15;1.77;;;1.00;;
60975;SDS011;46849;48.154;17.042;2022-09-03T03:17:00;3.05;;;1.13;;
60975;SDS011;46849;48.154;17.042;2022-09-03T03:19:44;3.45;;;1.20;;
60975;SDS011;46849;48.154;17.042;2022-09-03T03:22:29;4.40;;;1.40;;
60975;SDS011;46849;48.154;17.042;2022-09-03T03:25:13;2.25;;;1.25;;
60975;SDS011;46849;48.154;17.042;2022-09-03T03:27:57;2.65;;;1.38;;
60975;SDS011;46849;48.154;17.042;2022-09-03T03:30:42;1.88;;;1.00;;
60975;SDS011;46849;48.154;17.042;2022-09-03T03:33:26;2.45;;;0.95;;
60975;SDS011;46849;48.154;17.042;2022-09-03T03:36:12;3.58;;;1.20;;
60975;SDS011;46849;48.154;17.042;2022-09-03T03:38:58;2.70;;;1.40;;
60975;SDS011;46849;48.154;17.042;2022-09-03T03:41:43;2.33;;;1.33;;
60975;SDS011;46849;48.154;17.042;2022-09-03T03:44:27;2.65;;;1.23;;
60975;SDS011;46849;48.154;17.042;2022-09-03T03:47:12;3.38;;;1.55;;
60975;SDS011;46849;48.154;17.042;2022-09-03T03:49:59;2.15;;;1.23;;
60975;SDS011;46849;48.154;17.042;2022-09-03T03:52:45;4.25;;;1.20;;
60975;SDS011;46849;48.154;17.042;2022-09-03T03:55:29;1.42;;;0.98;;
60975;SDS011;46849;48.154;17.042;2022-09-03T03:58:13;2.53;;;1.40;;
60975;SDS011;46849;48.154;17.042;2022-09-03T04:01:05;4.38;;;1.77;;
60975;SDS011;46849;48.154;17.042;2022-09-03T04:03:50;4.75;;;1.73;;
60975;SDS011;46849;48.154;17.042;2022-09-03T04:06:35;2.05;;;1.10;;
60975;SDS011;46849;48.154;17.042;2022-09-03T04:09:19;4.15;;;1.52;;
60975;SDS011;46849;48.154;17.042;2022-09-03T04:12:04;8.15;;;1.52;;
60975;SDS011;46849;48.154;17.042;2022-09-03T04:14:51;2.40;;;1.17;;
60975;SDS011;46849;48.154;17.042;2022-09-03T04:17:36;5.53;;;1.58;;
60975;SDS011;46849;48.154;17.042;2022-09-03T04:20:20;2.58;;;1.50;;
60975;SDS011;46849;48.154;17.042;2022-09-03T04:23:05;2.42;;;1.42;;
60975;SDS011;46849;48.154;17.042;2022-09-03T04:25:52;2.92;;;1.63;;
60975;SDS011;46849;48.154;17.042;2022-09-03T04:28:37;2.33;;;1.70;;
60975;SDS011;46849;48.154;17.042;2022-09-03T04:31:22;3.92;;;1.33;;
60975;SDS011;46849;48.154;17.042;2022-09-03T04:34:06;2.28;;;1.38;;
60975;SDS011;46849;48.154;17.042;2022-09-03T04:36:51;2.03;;;1.50;;
60975;SDS011;46849;48.154;17.042;2022-09-03T04:39:35;2.78;;;1.55;;
60975;SDS011;46849;48.154;17.042;2022-09-03T04:42:20;3.67;;;1.30;;
60975;SDS011;46849;48.154;17.042;2022-09-03T04:45:05;2.95;;;1.50;;
60975;SDS011;46849;48.154;17.042;2022-09-03T04:48:00;3.50;;;1.42;;
60975;SDS011;46849;48.154;17.042;2022-09-03T04:50:44;3.55;;;1.52;;
60975;SDS011;46849;48.154;17.042;2022-09-03T04:53:28;2.40;;;1.40;;
60975;SDS011;46849;48.154;17.042;2022-09-03T04:56:16;3.83;;;1.55;;
60975;SDS011;46849;48.154;17.042;2022-09-03T04:59:03;6.10;;;1.58;;
60975;SDS011;46849;48.154;17.042;2022-09-03T05:01:48;3.90;;;1.40;;
60975;SDS011;46849;48.154;17.042;2022-09-03T05:04:32;3.03;;;1.17;;
60975;SDS011;46849;48.154;17.042;2022-09-03T05:07:17;3.13;;;1.70;;
60975;SDS011;46849;48.154;17.042;2022-09-03T05:10:06;4.43;;;1.77;;
60975;SDS011;46849;48.154;17.042;2022-09-03T05:12:58;3.25;;;1.52;;
60975;SDS011;46849;48.154;17.042;2022-09-03T05:18:28;5.13;;;1.83;;
60975;SDS011;46849;48.154;17.042;2022-09-03T05:21:14;2.38;;;1.38;;
60975;SDS011;46849;48.154;17.042;2022-09-03T05:23:59;6.93;;;1.70;;
60975;SDS011;46849;48.154;17.042;2022-09-03T05:26:45;2.33;;;1.58;;
60975;SDS011;46849;48.154;17.042;2022-09-03T05:29:29;4.20;;;1.80;;
60975;SDS011;46849;48.154;17.042;2022-09-03T05:32:13;2.47;;;1.40;;
60975;SDS011;46849;48.154;17.042;2022-09-03T05:35:00;3.40;;;1.58;;
60975;SDS011;46849;48.154;17.042;2022-09-03T05:37:44;2.33;;;1.48;;
60975;SDS011;46849;48.154;17.042;2022-09-03T05:40:28;2.67;;;1.40;;
60975;SDS011;46849;48.154;17.042;2022-09-03T05:43:14;5.72;;;2.50;;
60975;SDS011;46849;48.154;17.042;2022-09-03T05:46:01;2.40;;;1.65;;
60975;SDS011;46849;48.154;17.042;2022-09-03T05:48:46;2.55;;;1.60;;
60975;SDS011;46849;48.154;17.042;2022-09-03T05:51:31;5.88;;;2.17;;
60975;SDS011;46849;48.154;17.042;2022-09-03T05:54:15;5.40;;;2.03;;
60975;SDS011;46849;48.154;17.042;2022-09-03T05:57:00;3.38;;;1.80;;
60975;SDS011;46849;48.154;17.042;2022-09-03T05:59:45;3.88;;;1.83;;
60975;SDS011;46849;48.154;17.042;2022-09-03T06:02:30;5.85;;;2.65;;
60975;SDS011;46849;48.154;17.042;2022-09-03T06:05:16;4.70;;;2.30;;
60975;SDS011;46849;48.154;17.042;2022-09-03T06:08:02;4.07;;;1.88;;
60975;SDS011;46849;48.154;17.042;2022-09-03T06:10:47;6.63;;;2.97;;
60975;SDS011;46849;48.154;17.042;2022-09-03T06:13:32;5.90;;;2.47;;
60975;SDS011;46849;48.154;17.042;2022-09-03T06:16:16;5.45;;;3.03;;
60975;SDS011;46849;48.154;17.042;2022-09-03T06:19:01;5.88;;;2.92;;
60975;SDS011;46849;48.154;17.042;2022-09-03T06:21:46;5.50;;;2.42;;
60975;SDS011;46849;48.154;17.042;2022-09-03T06:24:30;9.68;;;4.13;;
60975;SDS011;46849;48.154;17.042;2022-09-03T06:27:15;12.88;;;5.78;;
60975;SDS011;46849;48.154;17.042;2022-09-03T06:29:59;18.55;;;6.03;;
60975;SDS011;46849;48.154;17.042;2022-09-03T06:32:45;5.28;;;2.92;;
60975;SDS011;46849;48.154;17.042;2022-09-03T06:35:29;5.00;;;2.40;;
60975;SDS011;46849;48.154;17.042;2022-09-03T06:38:14;7.97;;;3.45;;
60975;SDS011;46849;48.154;17.042;2022-09-03T06:40:59;6.10;;;2.90;;
60975;SDS011;46849;48.154;17.042;2022-09-03T06:43:47;5.32;;;2.55;;
60975;SDS011;46849;48.154;17.042;2022-09-03T06:46:33;7.70;;;3.75;;
60975;SDS011;46849;48.154;17.042;2022-09-03T06:49:18;4.30;;;2.30;;
60975;SDS011;46849;48.154;17.042;2022-09-03T06:52:03;6.43;;;2.50;;
60975;SDS011;46849;48.154;17.042;2022-09-03T06:54:48;3.50;;;2.40;;
60975;SDS011;46849;48.154;17.042;2022-09-03T06:57:32;3.90;;;2.13;;
60975;SDS011;46849;48.154;17.042;2022-09-03T07:00:17;3.65;;;2.28;;
60975;SDS011;46849;48.154;17.042;2022-09-03T07:03:02;6.65;;;2.50;;
60975;SDS011;46849;48.154;17.042;2022-09-03T07:05:47;4.38;;;2.38;;
60975;SDS011;46849;48.154;17.042;2022-09-03T07:08:31;5.38;;;2.25;;
60975;SDS011;46849;48.154;17.042;2022-09-03T07:11:17;5.63;;;2.47;;
60975;SDS011;46849;48.154;17.042;2022-09-03T07:14:03;4.35;;;2.33;;
60975;SDS011;46849;48.154;17.042;2022-09-03T07:16:48;3.45;;;2.35;;
60975;SDS011;46849;48.154;17.042;2022-09-03T07:19:34;4.32;;;2.25;;
60975;SDS011;46849;48.154;17.042;2022-09-03T07:22:19;5.07;;;2.55;;
60975;SDS011;46849;48.154;17.042;2022-09-03T07:25:03;4.88;;;2.50;;
60975;SDS011;46849;48.154;17.042;2022-09-03T07:27:48;3.03;;;2.13;;
60975;SDS011;46849;48.154;17.042;2022-09-03T07:30:34;5.50;;;2.50;;
60975;SDS011;46849;48.154;17.042;2022-09-03T07:33:19;3.63;;;2.40;;
60975;SDS011;46849;48.154;17.042;2022-09-03T07:36:06;4.50;;;2.00;;
60975;SDS011;46849;48.154;17.042;2022-09-03T07:38:53;5.57;;;2.70;;
60975;SDS011;46849;48.154;17.042;2022-09-03T07:41:38;5.32;;;2.45;;
60975;SDS011;46849;48.154;17.042;2022-09-03T07:44:28;4.53;;;2.03;;
60975;SDS011;46849;48.154;17.042;2022-09-03T07:47:14;4.95;;;2.55;;
60975;SDS011;46849;48.154;17.042;2022-09-03T07:50:02;4.88;;;2.30;;
60975;SDS011;46849;48.154;17.042;2022-09-03T07:52:47;5.13;;;2.35;;
60975;SDS011;46849;48.154;17.042;2022-09-03T07:55:32;3.92;;;2.65;;
60975;SDS011;46849;48.154;17.042;2022-09-03T07:58:17;3.05;;;2.10;;
60975;SDS011;46849;48.154;17.042;2022-09-03T08:01:11;4.45;;;2.42;;
60975;SDS011;46849;48.154;17.042;2022-09-03T08:03:56;7.18;;;2.70;;
60975;SDS011;46849;48.154;17.042;2022-09-03T08:06:40;4.65;;;2.30;;
60975;SDS011;46849;48.154;17.042;2022-09-03T08:09:25;5.55;;;2.80;;
60975;SDS011;46849;48.154;17.042;2022-09-03T08:12:10;5.07;;;2.42;;
60975;SDS011;46849;48.154;17.042;2022-09-03T08:14:54;4.20;;;2.00;;
60975;SDS011;46849;48.154;17.042;2022-09-03T08:17:42;4.93;;;1.90;;
60975;SDS011;46849;48.154;17.042;2022-09-03T08:20:26;2.63;;;1.80;;
60975;SDS011;46849;48.154;17.042;2022-09-03T08:23:11;2.42;;;1.60;;
60975;SDS011;46849;48.154;17.042;2022-09-03T08:26:00;5.78;;;1.85;;
60975;SDS011;46849;48.154;17.042;2022-09-03T08:28:45;3.78;;;1.70;;
60975;SDS011;46849;48.154;17.042;2022-09-03T08:31:30;4.50;;;2.17;;
60975;SDS011;46849;48.154;17.042;2022-09-03T08:34:18;3.85;;;1.90;;
60975;SDS011;46849;48.154;17.042;2022-09-03T08:37:03;4.85;;;2.00;;
60975;SDS011;46849;48.154;17.042;2022-09-03T08:39:48;4.72;;;2.42;;
60975;SDS011;46849;48.154;17.042;2022-09-03T08:42:40;3.00;;;1.73;;
60975;SDS011;46849;48.154;17.042;2022-09-03T08:45:30;4.10;;;1.83;;
60975;SDS011;46849;48.154;17.042;2022-09-03T08:48:17;3.95;;;1.75;;
60975;SDS011;46849;48.154;17.042;2022-09-03T08:51:05;3.08;;;1.75;;
60975;SDS011;46849;48.154;17.042;2022-09-03T08:53:51;3.78;;;1.35;;
60975;SDS011;46849;48.154;17.042;2022-09-03T08:56:39;3.22;;;1.80;;
60975;SDS011;46849;48.154;17.042;2022-09-03T08:59:24;3.38;;;1.80;;
60975;SDS011;46849;48.154;17.042;2022-09-03T09:07:49;7.18;;;3.05;;
60975;SDS011;46849;48.154;17.042;2022-09-03T09:10:42;5.07;;;2.28;;
60975;SDS011;46849;48.154;17.042;2022-09-03T09:13:40;3.13;;;1.77;;
60975;SDS011;46849;48.154;17.042;2022-09-03T09:22:37;2.90;;;1.40;;
60975;SDS011;46849;48.154;17.042;2022-09-03T09:25:22;3.50;;;2.00;;
60975;SDS011;46849;48.154;17.042;2022-09-03T09:28:12;2.47;;;1.50;;
60975;SDS011;46849;48.154;17.042;2022-09-03T09:31:00;2.85;;;1.33;;
60975;SDS011;46849;48.154;17.042;2022-09-03T09:33:46;2.70;;;1.30;;
60975;SDS011;46849;48.154;17.042;2022-09-03T09:36:30;2.17;;;1.35;;
60975;SDS011;46849;48.154;17.042;2022-09-03T09:39:14;3.65;;;1.63;;
60975;SDS011;46849;48.154;17.042;2022-09-03T09:42:00;4.00;;;1.35;;
60975;SDS011;46849;48.154;17.042;2022-09-03T09:44:51;3.65;;;1.73;;
60975;SDS011;46849;48.154;17.042;2022-09-03T09:47:37;5.03;;;1.27;;
60975;SDS011;46849;48.154;17.042;2022-09-03T09:50:22;2.47;;;1.48;;
60975;SDS011;46849;48.154;17.042;2022-09-03T09:53:07;6.82;;;1.13;;
60975;SDS011;46849;48.154;17.042;2022-09-03T09:55:57;2.03;;;1.05;;
60975;SDS011;46849;48.154;17.042;2022-09-03T09:58:42;2.90;;;1.10;;
60975;SDS011;46849;48.154;17.042;2022-09-03T10:01:26;5.70;;;1.00;;
60975;SDS011;46849;48.154;17.042;2022-09-03T10:04:20;1.38;;;0.80;;
60975;SDS011;46849;48.154;17.042;2022-09-03T10:07:25;2.95;;;1.40;;
60975;SDS011;46849;48.154;17.042;2022-09-03T10:13:05;1.65;;;0.90;;
60975;SDS011;46849;48.154;17.042;2022-09-03T10:18:44;2.05;;;1.30;;
60975;SDS011;46849;48.154;17.042;2022-09-03T10:21:35;2.72;;;1.15;;
60975;SDS011;46849;48.154;17.042;2022-09-03T10:27:25;2.22;;;1.05;;
60975;SDS011;46849;48.154;17.042;2022-09-03T10:30:11;4.78;;;1.30;;
60975;SDS011;46849;48.154;17.042;2022-09-03T10:36:17;2.80;;;1.17;;
60975;SDS011;46849;48.154;17.042;2022-09-03T10:39:17;3.33;;;1.27;;
60975;SDS011;46849;48.154;17.042;2022-09-03T10:50:24;2.53;;;1.00;;
60975;SDS011;46849;48.154;17.042;2022-09-03T10:53:22;3.15;;;1.30;;
60975;SDS011;46849;48.154;17.042;2022-09-03T10:56:14;5.57;;;1.20;;
60975;SDS011;46849;48.154;17.042;2022-09-03T11:07:31;2.17;;;1.17;;
60975;SDS011;46849;48.154;17.042;2022-09-03T11:10:20;4.85;;;1.90;;
60975;SDS011;46849;48.154;17.042;2022-09-03T11:15:55;1.85;;;0.95;;
60975;SDS011;46849;48.154;17.042;2022-09-03T11:21:29;2.53;;;1.00;;
60975;SDS011;46849;48.154;17.042;2022-09-03T11:24:21;2.72;;;0.90;;
60975;SDS011;46849;48.154;17.042;2022-09-03T11:27:14;1.75;;;0.73;;
60975;SDS011;46849;48.154;17.042;2022-09-03T11:30:03;2.95;;;1.00;;
60975;SDS011;46849;48.154;17.042;2022-09-03T11:32:51;1.85;;;0.60;;
60975;SDS011;46849;48.154;17.042;2022-09-03T11:35:38;2.67;;;0.75;;
60975;SDS011;46849;48.154;17.042;2022-09-03T11:38:25;1.70;;;0.90;;
60975;SDS011;46849;48.154;17.042;2022-09-03T11:41:13;1.98;;;0.73;;
60975;SDS011;46849;48.154;17.042;2022-09-03T11:43:58;1.77;;;0.95;;
60975;SDS011;46849;48.154;17.042;2022-09-03T11:46:52;3.17;;;0.65;;
60975;SDS011;46849;48.154;17.042;2022-09-03T11:49:42;3.13;;;1.02;;
60975;SDS011;46849;48.154;17.042;2022-09-03T11:52:27;1.13;;;0.70;;
60975;SDS011;46849;48.154;17.042;2022-09-03T11:55:23;2.58;;;0.82;;
60975;SDS011;46849;48.154;17.042;2022-09-03T12:01:22;2.63;;;0.90;;
60975;SDS011;46849;48.154;17.042;2022-09-03T12:04:07;1.85;;;0.60;;
60975;SDS011;46849;48.154;17.042;2022-09-03T12:12:51;1.50;;;0.80;;
60975;SDS011;46849;48.154;17.042;2022-09-03T12:18:38;1.75;;;0.70;;
60975;SDS011;46849;48.154;17.042;2022-09-03T12:21:24;1.08;;;0.73;;
60975;SDS011;46849;48.154;17.042;2022-09-03T12:24:10;1.50;;;0.90;;
60975;SDS011;46849;48.154;17.042;2022-09-03T12:26:55;2.03;;;0.93;;
60975;SDS011;46849;48.154;17.042;2022-09-03T12:29:49;1.05;;;0.52;;
60975;SDS011;46849;48.154;17.042;2022-09-03T12:32:34;1.52;;;0.70;;
60975;SDS011;46849;48.154;17.042;2022-09-03T12:35:23;1.55;;;0.70;;
60975;SDS011;46849;48.154;17.042;2022-09-03T12:38:11;2.53;;;0.80;;
60975;SDS011;46849;48.154;17.042;2022-09-03T12:40:56;1.10;;;0.68;;
60975;SDS011;46849;48.154;17.042;2022-09-03T12:43:48;1.88;;;0.70;;
60975;SDS011;46849;48.154;17.042;2022-09-03T12:46:34;2.40;;;0.60;;
60975;SDS011;46849;48.154;17.042;2022-09-03T12:49:19;1.10;;;0.70;;
60975;SDS011;46849;48.154;17.042;2022-09-03T12:58:02;1.63;;;0.60;;
60975;SDS011;46849;48.154;17.042;2022-09-03T13:00:50;0.60;;;0.40;;
60975;SDS011;46849;48.154;17.042;2022-09-03T13:06:28;1.00;;;0.60;;
60975;SDS011;46849;48.154;17.042;2022-09-03T13:09:18;2.50;;;0.80;;
60975;SDS011;46849;48.154;17.042;2022-09-03T13:12:04;2.60;;;1.00;;
60975;SDS011;46849;48.154;17.042;2022-09-03T13:14:49;1.98;;;0.77;;
60975;SDS011;46849;48.154;17.042;2022-09-03T13:28:54;0.98;;;0.63;;
60975;SDS011;46849;48.154;17.042;2022-09-03T13:31:43;2.83;;;0.60;;
60975;SDS011;46849;48.154;17.042;2022-09-03T13:43:07;0.85;;;0.60;;
60975;SDS011;46849;48.154;17.042;2022-09-03T13:46:02;1.00;;;0.65;;
60975;SDS011;46849;48.154;17.042;2022-09-03T13:48:49;1.38;;;0.70;;
60975;SDS011;46849;48.154;17.042;2022-09-03T13:51:59;1.40;;;0.80;;
60975;SDS011;46849;48.154;17.042;2022-09-03T13:54:49;1.80;;;0.80;;
60975;SDS011;46849;48.154;17.042;2022-09-03T13:57:43;2.67;;;0.65;;
60975;SDS011;46849;48.154;17.042;2022-09-03T14:03:37;1.30;;;0.90;;
60975;SDS011;46849;48.154;17.042;2022-09-03T14:06:37;1.73;;;0.80;;
60975;SDS011;46849;48.154;17.042;2022-09-03T14:12:16;1.88;;;0.77;;
60975;SDS011;46849;48.154;17.042;2022-09-03T14:18:09;3.23;;;1.07;;
60975;SDS011;46849;48.154;17.042;2022-09-03T14:20:58;1.30;;;0.80;;
60975;SDS011;46849;48.154;17.042;2022-09-03T14:23:46;3.58;;;0.90;;
60975;SDS011;46849;48.154;17.042;2022-09-03T14:26:33;1.17;;;0.68;;
60975;SDS011;46849;48.154;17.042;2022-09-03T14:29:17;1.25;;;0.60;;
60975;SDS011;46849;48.154;17.042;2022-09-03T14:35:21;2.95;;;1.02;;
60975;SDS011;46849;48.154;17.042;2022-09-03T14:44:08;1.55;;;0.88;;
60975;SDS011;46849;48.154;17.042;2022-09-03T14:52:56;1.50;;;0.90;;
60975;SDS011;46849;48.154;17.042;2022-09-03T14:58:46;2.47;;;0.90;;
60975;SDS011;46849;48.154;17.042;2022-09-03T15:01:34;1.50;;;0.80;;
60975;SDS011;46849;48.154;17.042;2022-09-03T15:12:54;3.03;;;1.00;;
60975;SDS011;46849;48.154;17.042;2022-09-03T15:24:18;1.20;;;0.80;;
60975;SDS011;46849;48.154;17.042;2022-09-03T15:27:11;1.52;;;0.90;;
60975;SDS011;46849;48.154;17.042;2022-09-03T15:30:10;2.37;;;0.80;;
60975;SDS011;46849;48.154;17.042;2022-09-03T15:44:34;1.73;;;0.93;;
60975;SDS011;46849;48.154;17.042;2022-09-03T15:47:40;1.92;;;0.93;;
60975;SDS011;46849;48.154;17.042;2022-09-03T15:50:33;1.73;;;0.82;;
60975;SDS011;46849;48.154;17.042;2022-09-03T15:56:40;1.13;;;0.82;;
60975;SDS011;46849;48.154;17.042;2022-09-03T16:19:00;2.72;;;1.00;;
60975;SDS011;46849;48.154;17.042;2022-09-03T16:25:12;1.85;;;1.00;;
60975;SDS011;46849;48.154;17.042;2022-09-03T16:45:44;3.38;;;1.05;;
60975;SDS011;46849;48.154;17.042;2022-09-03T17:11:56;2.05;;;0.98;;
60975;SDS011;46849;48.154;17.042;2022-09-03T17:20:14;2.30;;;1.10;;
60975;SDS011;46849;48.154;17.042;2022-09-03T17:28:58;2.80;;;1.20;;
60975;SDS011;46849;48.154;17.042;2022-09-03T17:31:59;2.50;;;1.23;;
60975;SDS011;46849;48.154;17.042;2022-09-03T17:35:04;1.90;;;1.10;;
60975;SDS011;46849;48.154;17.042;2022-09-03T17:37:55;2.88;;;1.10;;
60975;SDS011;46849;48.154;17.042;2022-09-03T17:46:29;2.53;;;1.02;;
60975;SDS011;46849;48.154;17.042;2022-09-03T17:49:20;3.38;;;1.35;;
60975;SDS011;46849;48.154;17.042;2022-09-03T17:52:10;1.88;;;1.08;;
60975;SDS011;46849;48.154;17.042;2022-09-03T17:55:01;2.13;;;0.95;;
60975;SDS011;46849;48.154;17.042;2022-09-03T18:09:22;3.20;;;1.58;;
60975;SDS011;46849;48.154;17.042;2022-09-03T18:15:47;2.90;;;0.95;;
60975;SDS011;46849;48.154;17.042;2022-09-03T18:18:25;6.00;;;1.60;;
60975;SDS011;46849;48.154;17.042;2022-09-03T18:21:11;1.63;;;1.00;;
60975;SDS011;46849;48.154;17.042;2022-09-03T18:30:37;2.45;;;1.10;;
60975;SDS011;46849;48.154;17.042;2022-09-03T18:33:40;2.45;;;1.10;;
60975;SDS011;46849;48.154;17.042;2022-09-03T18:36:43;1.73;;;1.20;;
60975;SDS011;46849;48.154;17.042;2022-09-03T18:39:46;3.47;;;1.15;;
60975;SDS011;46849;48.154;17.042;2022-09-03T18:43:04;2.47;;;1.10;;
60975;SDS011;46849;48.154;17.042;2022-09-03T18:49:18;3.22;;;1.55;;
60975;SDS011;46849;48.154;17.042;2022-09-03T18:52:26;4.07;;;1.25;;
60975;SDS011;46849;48.154;17.042;2022-09-03T18:55:48;3.33;;;1.25;;
60975;SDS011;46849;48.154;17.042;2022-09-03T19:02:51;5.18;;;1.40;;
60975;SDS011;46849;48.154;17.042;2022-09-03T19:12:07;1.95;;;1.30;;
60975;SDS011;46849;48.154;17.042;2022-09-03T19:15:18;2.30;;;1.25;;
60975;SDS011;46849;48.154;17.042;2022-09-03T19:21:35;3.20;;;1.05;;
60975;SDS011;46849;48.154;17.042;2022-09-03T19:24:40;2.20;;;1.30;;
60975;SDS011;46849;48.154;17.042;2022-09-03T19:46:57;2.43;;;1.53;;
60975;SDS011;46849;48.154;17.042;2022-09-03T19:50:13;3.80;;;1.40;;
60975;SDS011;46849;48.154;17.042;2022-09-03T19:53:18;3.47;;;1.58;;
60975;SDS011;46849;48.154;17.042;2022-09-03T19:56:23;2.58;;;1.20;;
60975;SDS011;46849;48.154;17.042;2022-09-03T19:59:31;3.05;;;1.50;;
60975;SDS011;46849;48.154;17.042;2022-09-03T20:02:35;1.38;;;1.02;;
60975;SDS011;46849;48.154;17.042;2022-09-03T20:05:40;2.00;;;1.30;;
60975;SDS011;46849;48.154;17.042;2022-09-03T20:08:42;3.05;;;1.30;;
60975;SDS011;46849;48.154;17.042;2022-09-03T20:11:46;1.88;;;1.25;;
60975;SDS011;46849;48.154;17.042;2022-09-03T20:14:32;3.55;;;1.17;;
60975;SDS011;46849;48.154;17.042;2022-09-03T20:17:35;1.95;;;0.90;;
60975;SDS011;46849;48.154;17.042;2022-09-03T20:23:07;2.63;;;1.30;;
60975;SDS011;46849;48.154;17.042;2022-09-03T20:26:00;2.92;;;1.25;;
60975;SDS011;46849;48.154;17.042;2022-09-03T20:37:25;1.85;;;1.20;;
60975;SDS011;46849;48.154;17.042;2022-09-03T20:43:12;1.60;;;1.02;;
60975;SDS011;46849;48.154;17.042;2022-09-03T20:46:09;1.33;;;1.00;;
60975;SDS011;46849;48.154;17.042;2022-09-03T20:51:56;1.98;;;1.08;;
60975;SDS011;46849;48.154;17.042;2022-09-03T20:54:49;3.83;;;1.20;;
60975;SDS011;46849;48.154;17.042;2022-09-03T21:00:47;4.10;;;1.30;;
60975;SDS011;46849;48.154;17.042;2022-09-03T21:03:43;1.92;;;1.27;;
60975;SDS011;46849;48.154;17.042;2022-09-03T21:09:20;2.35;;;1.52;;
60975;SDS011;46849;48.154;17.042;2022-09-03T21:12:25;2.20;;;1.13;;
60975;SDS011;46849;48.154;17.042;2022-09-03T21:15:19;1.58;;;1.10;;
60975;SDS011;46849;48.154;17.042;2022-09-03T21:21:01;2.85;;;1.13;;
60975;SDS011;46849;48.154;17.042;2022-09-03T21:24:03;5.18;;;1.30;;
60975;SDS011;46849;48.154;17.042;2022-09-03T21:26:55;1.77;;;1.20;;
60975;SDS011;46849;48.154;17.042;2022-09-03T21:29:46;3.45;;;1.48;;
60975;SDS011;46849;48.154;17.042;2022-09-03T21:32:37;3.42;;;1.20;;
60975;SDS011;46849;48.154;17.042;2022-09-03T21:35:34;2.25;;;1.48;;
60975;SDS011;46849;48.154;17.042;2022-09-03T21:38:22;2.38;;;1.30;;
60975;SDS011;46849;48.154;17.042;2022-09-03T21:47:04;2.47;;;1.10;;
60975;SDS011;46849;48.154;17.042;2022-09-03T21:55:43;1.77;;;1.05;;
60975;SDS011;46849;48.154;17.042;2022-09-03T21:58:58;3.25;;;1.50;;
60975;SDS011;46849;48.154;17.042;2022-09-03T22:01:52;2.08;;;1.13;;
60975;SDS011;46849;48.154;17.042;2022-09-03T22:04:40;4.57;;;1.27;;
60975;SDS011;46849;48.154;17.042;2022-09-03T22:15:47;1.98;;;1.27;;
60975;SDS011;46849;48.154;17.042;2022-09-03T22:18:33;2.35;;;1.30;;
60975;SDS011;46849;48.154;17.042;2022-09-03T22:21:20;2.17;;;1.30;;
60975;SDS011;46849;48.154;17.042;2022-09-03T22:27:36;1.75;;;1.27;;
60975;SDS011;46849;48.154;17.042;2022-09-03T22:30:16;5.72;;;1.65;;
60975;SDS011;46849;48.154;17.042;2022-09-03T22:46:57;2.97;;;1.50;;
60975;SDS011;46849;48.154;17.042;2022-09-03T22:55:30;4.80;;;1.33;;
60975;SDS011;46849;48.154;17.042;2022-09-03T22:58:18;3.65;;;1.60;;
60975;SDS011;46849;48.154;17.042;2022-09-03T23:01:09;3.08;;;1.65;;
60975;SDS011;46849;48.154;17.042;2022-09-03T23:03:57;2.30;;;1.23;;
60975;SDS011;46849;48.154;17.042;2022-09-03T23:06:58;3.03;;;1.50;;
60975;SDS011;46849;48.154;17.042;2022-09-03T23:10:04;2.22;;;1.30;;
60975;SDS011;46849;48.154;17.042;2022-09-03T23:12:51;2.30;;;1.60;;
60975;SDS011;46849;48.154;17.042;2022-09-03T23:15:39;2.88;;;1.60;;
60975;SDS011;46849;48.154;17.042;2022-09-03T23:18:25;2.00;;;1.58;;
60975;SDS011;46849;48.154;17.042;2022-09-03T23:24:04;2.35;;;1.60;;
60975;SDS011;46849;48.154;17.042;2022-09-03T23:26:50;3.42;;;1.65;;
60975;SDS011;46849;48.154;17.042;2022-09-03T23:29:40;2.35;;;1.40;;
60975;SDS011;46849;48.154;17.042;2022-09-03T23:32:26;1.98;;;1.40;;
60975;SDS011;46849;48.154;17.042;2022-09-03T23:35:12;3.00;;;1.50;;